This is the latest recevied weather packets stored in our database for station/object SQ5RTW-1. If no packets are shown the sender has not sent any weather packets the latest 10 day(s).
| Time | Temp. | Humidity | Pressure | Rain* | Wind** | Luminosity | Snow |
|---|---|---|---|---|---|---|---|
| 1777569842 | 13.33° C | 34% | 1029.7 hPa | - | - | - | - |
| 1777568940 | 16.11° C | 29% | 1029.8 hPa | - | - | - | - |
| 1777568923 | 16.67° C | 29% | 1029.7 hPa | - | - | - | - |
| 1777568899 | 14.44° C | 29% | 1029.8 hPa | - | - | - | - |
| 1777567998 | 18.33° C | 25% | 1030 hPa | - | - | - | - |
| 1777567097 | 21.11° C | 22% | 1030.3 hPa | - | - | - | - |
| 1777566196 | 16.67° C | 25% | 1029.9 hPa | - | - | - | - |
| 1777565295 | 17.78° C | 26% | 1030.1 hPa | - | - | - | - |
| 1777565279 | 18.89° C | 26% | 1030 hPa | - | - | - | - |
| 1777565254 | 16.67° C | 26% | 1030.1 hPa | - | - | - | - |
| 1777564353 | 16.11° C | 27% | 1030.2 hPa | - | - | - | - |
| 1777563452 | 16.11° C | 26% | 1030.3 hPa | - | - | - | - |
| 1777562551 | 17.78° C | 25% | 1030.1 hPa | - | - | - | - |
| 1777562535 | 18.89° C | 25% | 1030.2 hPa | - | - | - | - |
| 1777562510 | 16.67° C | 24% | 1030.1 hPa | - | - | - | - |
| 1777561609 | 18.89° C | 22% | 1030.4 hPa | - | - | - | - |
| 1777560708 | 20.56° C | 20% | 1030.3 hPa | - | - | - | - |
| 1777559807 | 16.11° C | 27% | 1030.5 hPa | - | - | - | - |
| 1777559791 | 17.22° C | 28% | 1030.4 hPa | - | - | - | - |
| 1777559766 | 15° C | 27% | 1030.5 hPa | - | - | - | - |
| 1777558865 | 14.44° C | 27% | 1030.6 hPa | - | - | - | - |
| 1777557964 | 14.44° C | 26% | 1030.6 hPa | - | - | - | - |
| 1777557064 | 15.56° C | 26% | 1030.7 hPa | - | - | - | - |
| 1777556162 | 17.22° C | 23% | 1030.9 hPa | - | - | - | - |
| 1777555261 | 23.33° C | 19% | 1031.1 hPa | - | - | - | - |
* Rain since midnight (hover to see other rain measurements)
** Current wind speed in m/s (hover to see current wind gust speed)